Time;durP1;ratioP1;P1;durP2;ratioP2;P2;SDS_P1;SDS_P2;PMS_P1;PMS_P2;Temp;Humidity;BMP_temperature;BMP_pressure;BME280_temperature;BME280_humidity;BME280_pressure;Samples;Min_cycle;Max_cycle;Signal;HPM_P1;HPM_P2
2022/05/17 00:00:41;;;;;;;3.63;1.20;;;13.30;99.90;;;;;;4151016;28;20344;-42
2022/05/17 00:02:43;;;;;;;2.10;1.38;;;13.40;99.90;;;;;;4160752;28;20061;-42
2022/05/17 00:04:45;;;;;;;2.70;1.30;;;13.40;99.90;;;;;;4146486;28;20053;-41
2022/05/17 00:06:48;;;;;;;2.95;1.20;;;13.50;99.90;;;;;;4149010;28;20045;-41
2022/05/17 00:08:50;;;;;;;1.80;1.63;;;13.60;99.90;;;;;;4160610;28;20531;-43
2022/05/17 00:10:53;;;;;;;2.65;1.67;;;13.70;99.90;;;;;;4149448;28;20036;-42
2022/05/17 00:12:55;;;;;;;1.15;1.05;;;13.60;99.90;;;;;;4157784;28;20137;-42
2022/05/17 00:14:58;;;;;;;2.60;1.85;;;13.60;99.90;;;;;;4143022;28;20455;-43
2022/05/17 00:17:00;;;;;;;;;;;13.60;99.90;;;;;;4144698;28;20068;-42
2022/05/17 00:19:03;;;;;;;2.08;1.42;;;13.50;99.90;;;;;;4160160;28;20046;-41
2022/05/17 00:21:05;;;;;;;;;;;13.40;99.90;;;;;;4144458;28;20054;-41
2022/05/17 00:23:08;;;;;;;2.20;1.48;;;13.40;99.90;;;;;;4151783;28;20024;-43
2022/05/17 00:25:13;;;;;;;2.05;1.20;;;13.40;99.90;;;;;;4160724;28;20047;-42
2022/05/17 00:27:16;;;;;;;3.63;1.20;;;13.30;99.90;;;;;;4144708;28;20049;-41
2022/05/17 00:29:21;;;;;;;4.13;1.52;;;13.20;99.90;;;;;;4149885;28;20049;-41
2022/05/17 00:31:25;;;;;;;3.60;1.75;;;13.20;99.90;;;;;;4160368;28;20392;-44
2022/05/17 00:33:30;;;;;;;2.00;1.20;;;13.10;99.90;;;;;;4160395;28;20072;-42
2022/05/17 00:35:32;;;;;;;3.63;1.75;;;13.00;99.90;;;;;;4160202;28;20041;-44
2022/05/17 00:37:35;;;;;;;1.42;1.20;;;12.90;99.90;;;;;;4160066;28;20049;-42
2022/05/17 00:39:37;;;;;;;2.22;1.60;;;12.80;99.90;;;;;;4159834;28;20411;-42
2022/05/17 00:41:39;;;;;;;3.97;1.40;;;12.70;99.90;;;;;;4160040;28;20039;-42
2022/05/17 00:46:05;;;;;;;3.53;1.63;;;12.60;99.90;;;;;;4146996;28;20037;-42
2022/05/17 00:48:08;;;;;;;1.77;1.75;;;12.50;99.90;;;;;;4149426;28;20041;-42
2022/05/17 00:50:16;;;;;;;4.63;2.05;;;12.40;99.90;;;;;;4163369;28;20049;-43
2022/05/17 00:52:36;;;;;;;4.43;1.50;;;12.30;99.90;;;;;;4163517;28;20041;-43
2022/05/17 00:54:42;;;;;;;3.55;1.45;;;12.30;99.90;;;;;;4162990;28;20033;-43
2022/05/17 00:56:53;;;;;;;2.33;1.30;;;12.20;99.90;;;;;;4163740;28;20202;-42
2022/05/17 00:59:00;;;;;;;1.88;1.30;;;12.00;99.90;;;;;;4161724;28;20045;-42
2022/05/17 01:01:20;;;;;;;2.53;1.50;;;12.10;99.90;;;;;;4158111;28;20038;-41
2022/05/17 01:03:25;;;;;;;4.03;1.58;;;12.20;99.90;;;;;;4146839;28;20556;-42
2022/05/17 01:05:32;;;;;;;3.42;1.65;;;12.10;99.90;;;;;;4162052;28;20188;-42
2022/05/17 01:07:40;;;;;;;5.10;1.50;;;12.00;99.90;;;;;;4162141;28;20072;-42
2022/05/17 01:09:42;;;;;;;1.88;1.77;;;11.90;99.90;;;;;;4161980;28;20064;-42
2022/05/17 01:11:44;;;;;;;2.35;1.50;;;11.80;99.90;;;;;;4161702;28;20080;-42
2022/05/17 01:16:07;;;;;;;1.98;1.17;;;12.00;99.90;;;;;;4163208;28;20140;-42
2022/05/17 01:18:10;;;;;;;;;;;12.10;99.90;;;;;;4163249;28;20037;-41
2022/05/17 01:20:13;;;;;;;2.20;1.90;;;12.30;99.90;;;;;;4163254;28;19933;-42
2022/05/17 01:22:17;;;;;;;4.45;1.80;;;12.20;99.90;;;;;;4162806;28;20294;-42
2022/05/17 01:24:19;;;;;;;3.95;1.73;;;12.20;99.90;;;;;;4162804;28;20505;-42
2022/05/17 01:26:27;;;;;;;1.98;1.83;;;12.10;99.90;;;;;;4162722;28;20116;-42
2022/05/17 01:28:36;;;;;;;3.63;1.77;;;12.10;99.90;;;;;;4163257;28;20046;-43
2022/05/17 01:30:39;;;;;;;2.03;1.30;;;12.00;99.90;;;;;;4162580;28;20079;-41
2022/05/17 01:32:42;;;;;;;3.38;1.73;;;12.10;99.90;;;;;;4162734;28;20034;-42
2022/05/17 01:34:45;;;;;;;3.47;3.25;;;12.20;99.90;;;;;;4162779;28;20493;-42
2022/05/17 01:36:47;;;;;;;2.22;1.65;;;12.30;99.90;;;;;;4162538;28;20045;-42
2022/05/17 01:38:51;;;;;;;2.25;1.85;;;12.10;99.90;;;;;;4162786;28;20489;-41
2022/05/17 01:40:53;;;;;;;3.17;1.50;;;11.80;99.90;;;;;;4162433;28;20053;-42
2022/05/17 01:42:55;;;;;;;3.33;2.10;;;11.90;99.90;;;;;;4162544;28;20049;-42
2022/05/17 01:44:58;;;;;;;1.95;1.77;;;12.00;99.90;;;;;;4162598;28;20041;-41
2022/05/17 01:47:00;;;;;;;1.50;1.40;;;11.90;99.90;;;;;;4162305;28;20124;-42
2022/05/17 01:49:03;;;;;;;1.80;1.65;;;11.90;99.90;;;;;;4162604;28;20041;-41
2022/05/17 01:51:07;;;;;;;1.98;1.80;;;12.00;99.90;;;;;;4162570;28;20048;-41
2022/05/17 01:53:10;;;;;;;3.30;1.65;;;12.20;99.90;;;;;;4162660;28;20120;-43
2022/05/17 01:55:13;;;;;;;1.88;1.75;;;12.20;99.90;;;;;;4162704;28;20103;-41
2022/05/17 01:57:16;;;;;;;4.05;1.88;;;12.10;99.90;;;;;;4162292;28;20053;-43
2022/05/17 01:59:18;;;;;;;1.85;1.75;;;12.00;99.90;;;;;;4161718;28;20041;-42
2022/05/17 02:01:20;;;;;;;2.72;1.60;;;12.10;99.90;;;;;;4160061;28;20045;-42
2022/05/17 02:03:23;;;;;;;;;;;11.90;99.90;;;;;;4146783;28;20140;-42
2022/05/17 02:05:26;;;;;;;2.00;1.58;;;11.90;99.90;;;;;;4155887;28;20360;-43
2022/05/17 02:07:28;;;;;;;2.42;1.58;;;12.00;99.90;;;;;;4162009;28;20099;-42
2022/05/17 02:09:30;;;;;;;2.00;1.75;;;11.90;99.90;;;;;;4162845;28;20048;-42
2022/05/17 02:11:33;;;;;;;4.18;1.55;;;11.80;99.90;;;;;;4162027;28;20072;-42
2022/05/17 02:13:35;;;;;;;1.60;1.40;;;11.90;99.90;;;;;;4162232;28;20041;-42
2022/05/17 02:15:38;;;;;;;1.75;1.65;;;11.90;99.90;;;;;;4161973;28;20107;-42
2022/05/17 02:17:42;;;;;;;2.08;1.73;;;11.80;99.90;;;;;;4161534;28;20033;-42
2022/05/17 02:19:44;;;;;;;1.83;1.33;;;11.80;99.90;;;;;;4162187;28;20049;-42
2022/05/17 02:21:47;;;;;;;1.25;1.25;;;11.70;99.90;;;;;;4149089;28;20056;-42
2022/05/17 02:23:49;;;;;;;1.70;1.60;;;11.60;99.90;;;;;;4145675;28;20045;-42
2022/05/17 02:25:51;;;;;;;2.58;1.58;;;11.70;99.90;;;;;;4145735;28;20898;-42
2022/05/17 02:27:54;;;;;;;4.18;1.80;;;11.70;99.90;;;;;;4156222;28;20030;-41
2022/05/17 02:29:56;;;;;;;3.35;1.45;;;11.70;99.90;;;;;;4161855;28;20124;-41
2022/05/17 02:31:59;;;;;;;;;;;11.60;99.90;;;;;;4162479;28;20501;-42
2022/05/17 02:34:01;;;;;;;1.77;1.67;;;11.50;99.90;;;;;;4162073;28;19925;-42
2022/05/17 02:36:03;;;;;;;3.63;2.00;;;11.40;99.90;;;;;;4161774;28;20580;-42
2022/05/17 02:38:06;;;;;;;;;;;11.50;99.90;;;;;;4162159;28;20057;-41
2022/05/17 02:40:08;;;;;;;1.73;1.63;;;11.50;99.90;;;;;;4161563;28;20007;-42
2022/05/17 02:42:11;;;;;;;4.03;2.38;;;11.50;99.90;;;;;;4161812;28;20045;-42
2022/05/17 02:44:14;;;;;;;2.40;2.30;;;11.40;99.90;;;;;;4161507;28;20042;-42
2022/05/17 02:46:17;;;;;;;2.25;1.77;;;11.30;99.90;;;;;;4161328;28;20072;-46
2022/05/17 02:48:19;;;;;;;2.13;1.48;;;11.30;99.90;;;;;;4161727;28;20038;-42
2022/05/17 02:50:21;;;;;;;1.55;1.45;;;11.20;99.90;;;;;;4161454;28;20048;-41
2022/05/17 02:52:23;;;;;;;2.40;2.05;;;11.20;99.90;;;;;;4160199;28;20049;-42
2022/05/17 02:54:26;;;;;;;6.30;2.22;;;11.10;99.90;;;;;;4161439;28;20382;-42
2022/05/17 02:56:28;;;;;;;2.33;2.08;;;11.20;99.90;;;;;;4151563;28;20049;-42
2022/05/17 02:58:30;;;;;;;4.32;2.00;;;11.30;99.90;;;;;;4144387;28;20125;-42
2022/05/17 03:00:33;;;;;;;2.08;1.40;;;11.40;99.90;;;;;;4161256;28;20057;-42
2022/05/17 03:02:35;;;;;;;1.77;1.67;;;11.50;99.90;;;;;;4153557;28;20103;-41
2022/05/17 03:04:37;;;;;;;2.42;2.25;;;11.50;99.90;;;;;;4145220;28;20523;-41
2022/05/17 03:06:44;;;;;;;1.52;1.52;;;11.40;99.90;;;;;;4145072;28;20502;-42
2022/05/17 03:08:46;;;;;;;2.08;1.90;;;11.30;99.90;;;;;;4159888;28;20084;-42
2022/05/17 03:10:48;;;;;;;2.90;1.40;;;11.40;99.90;;;;;;4161121;28;20152;-42
2022/05/17 03:12:50;;;;;;;2.17;1.95;;;11.20;99.90;;;;;;4161273;28;20045;-42
2022/05/17 03:14:53;;;;;;;5.40;2.55;;;11.00;99.90;;;;;;4161192;28;20083;-42
2022/05/17 03:16:55;;;;;;;1.95;1.88;;;10.90;99.90;;;;;;4160784;28;20056;-41
2022/05/17 03:18:58;;;;;;;2.22;2.13;;;10.90;99.90;;;;;;4161189;28;20551;-42
2022/05/17 03:21:01;;;;;;;1.90;1.83;;;10.90;99.90;;;;;;4161016;28;20064;-43
2022/05/17 03:23:03;;;;;;;4.22;1.90;;;10.90;99.90;;;;;;4161090;28;20375;-42
2022/05/17 03:25:06;;;;;;;6.65;2.60;;;11.00;99.90;;;;;;4160928;28;20119;-41
2022/05/17 03:27:26;;;;;;;2.65;1.67;;;10.90;99.90;;;;;;4160979;28;20042;-42
2022/05/17 03:29:28;;;;;;;3.95;2.50;;;10.90;99.90;;;;;;4161152;28;20428;-42
2022/05/17 03:31:30;;;;;;;4.25;2.45;;;11.00;99.90;;;;;;4151229;28;20052;-42
2022/05/17 03:33:33;;;;;;;2.15;1.73;;;11.00;99.90;;;;;;4144856;28;20042;-42
2022/05/17 03:35:35;;;;;;;2.03;1.92;;;10.90;99.90;;;;;;4144769;28;20053;-42
2022/05/17 03:37:37;;;;;;;2.17;1.77;;;10.80;99.90;;;;;;4144431;28;20038;-43
2022/05/17 03:39:40;;;;;;;4.07;2.75;;;10.90;99.90;;;;;;4144497;28;20057;-43
2022/05/17 03:41:42;;;;;;;2.22;1.60;;;10.70;99.90;;;;;;4144917;28;20042;-42
2022/05/17 03:43:47;;;;;;;1.70;1.60;;;10.60;99.90;;;;;;4151729;28;20041;-41
2022/05/17 03:45:49;;;;;;;2.25;1.40;;;10.60;99.90;;;;;;4160236;28;20048;-42
2022/05/17 03:47:52;;;;;;;3.45;2.80;;;10.60;99.90;;;;;;4161135;28;20053;-43
2022/05/17 03:49:54;;;;;;;2.92;2.72;;;10.60;99.90;;;;;;4161120;28;20099;-43
2022/05/17 03:51:57;;;;;;;2.50;2.35;;;10.70;99.90;;;;;;4160830;28;20068;-43
2022/05/17 03:54:00;;;;;;;3.13;2.42;;;10.80;99.90;;;;;;4160257;28;20400;-42
2022/05/17 03:56:03;;;;;;;6.43;2.13;;;10.80;99.90;;;;;;4161235;28;20115;-42
2022/05/17 03:58:07;;;;;;;2.35;1.83;;;10.80;99.90;;;;;;4161075;28;20409;-42
2022/05/17 04:00:11;;;;;;;3.20;1.98;;;10.70;99.90;;;;;;4159917;28;20046;-42
2022/05/17 04:02:14;;;;;;;2.42;1.60;;;10.70;99.90;;;;;;4160779;28;20627;-42
2022/05/17 04:04:16;;;;;;;2.28;1.70;;;10.70;99.90;;;;;;4161156;28;20061;-42
2022/05/17 04:06:19;;;;;;;;;;;10.70;99.90;;;;;;4161085;28;20045;-42
2022/05/17 04:08:21;;;;;;;3.92;2.00;;;10.80;99.90;;;;;;4157379;28;19979;-42
2022/05/17 04:10:25;;;;;;;7.85;2.53;;;10.80;99.90;;;;;;4143303;28;20132;-42
2022/05/17 04:12:27;;;;;;;2.25;2.15;;;10.70;99.90;;;;;;4158252;28;20052;-42
2022/05/17 04:14:30;;;;;;;3.97;2.10;;;10.80;99.90;;;;;;4160786;28;20092;-41
2022/05/17 04:16:34;;;;;;;;;;;10.70;99.90;;;;;;4161409;28;20401;-42
2022/05/17 04:18:36;;;;;;;2.53;2.42;;;10.70;99.90;;;;;;4160823;28;19955;-44
2022/05/17 04:20:39;;;;;;;2.63;1.65;;;10.60;99.90;;;;;;4160759;28;20042;-43
2022/05/17 04:22:48;;;;;;;2.30;2.15;;;10.60;99.90;;;;;;4162309;28;20493;-42
2022/05/17 04:24:54;;;;;;;2.83;1.60;;;10.50;99.90;;;;;;4164378;28;20041;-42
2022/05/17 04:26:57;;;;;;;2.85;2.13;;;10.50;99.90;;;;;;4164015;28;20045;-42
2022/05/17 04:29:02;;;;;;;3.55;2.35;;;10.40;99.90;;;;;;4164257;28;20124;-42
2022/05/17 04:31:05;;;;;;;2.55;2.10;;;10.40;99.90;;;;;;4163750;28;20417;-42
2022/05/17 04:33:07;;;;;;;;;;;10.40;99.90;;;;;;4164873;28;20046;-42
2022/05/17 04:35:11;;;;;;;3.80;2.20;;;10.40;99.90;;;;;;4164089;28;20016;-41
2022/05/17 04:37:13;;;;;;;2.30;2.17;;;10.40;99.90;;;;;;4155274;28;20382;-41
2022/05/17 04:39:16;;;;;;;5.97;2.33;;;10.30;99.90;;;;;;4147742;28;20034;-41
2022/05/17 04:41:18;;;;;;;;;;;10.40;99.90;;;;;;4164034;28;20099;-41
2022/05/17 04:43:24;;;;;;;3.42;2.58;;;10.50;99.90;;;;;;4163924;28;20458;-41
2022/05/17 04:45:27;;;;;;;3.72;3.22;;;10.50;99.90;;;;;;4163676;28;20049;-42
2022/05/17 04:47:32;;;;;;;2.55;2.35;;;10.50;99.90;;;;;;4163519;28;20397;-42
2022/05/17 04:49:34;;;;;;;3.67;2.25;;;10.60;99.90;;;;;;4162848;28;20083;-42
2022/05/17 04:51:36;;;;;;;2.60;2.50;;;10.60;99.90;;;;;;4163556;28;20397;-41
2022/05/17 04:53:40;;;;;;;4.30;2.58;;;10.60;99.90;;;;;;4162891;28;20038;-41
2022/05/17 04:55:42;;;;;;;3.25;2.92;;;10.70;99.90;;;;;;4163057;28;20040;-42
2022/05/17 04:57:44;;;;;;;2.17;2.08;;;10.70;99.90;;;;;;4149284;28;20038;-42
2022/05/17 04:59:47;;;;;;;5.88;2.40;;;10.80;99.90;;;;;;4157465;28;20049;-42
2022/05/17 05:01:52;;;;;;;5.40;2.22;;;11.00;99.90;;;;;;4148412;28;20045;-42
2022/05/17 05:03:54;;;;;;;;;;;11.10;99.90;;;;;;4152248;28;20041;-42
2022/05/17 05:05:56;;;;;;;3.38;2.65;;;11.10;99.90;;;;;;4154514;28;19948;-41
2022/05/17 05:08:01;;;;;;;2.75;2.03;;;11.20;99.90;;;;;;4155884;28;20068;-42
2022/05/17 05:10:04;;;;;;;2.70;2.55;;;11.40;99.90;;;;;;4163417;28;20034;-41
2022/05/17 05:12:09;;;;;;;4.10;2.30;;;11.50;99.90;;;;;;4163434;28;20571;-42
2022/05/17 05:14:12;;;;;;;2.55;2.35;;;11.50;99.90;;;;;;4163203;28;20092;-41
2022/05/17 05:16:15;;;;;;;2.38;1.92;;;11.50;99.90;;;;;;4148320;28;20042;-42
2022/05/17 05:18:18;;;;;;;2.72;2.53;;;11.60;99.90;;;;;;4157843;28;20046;-42
2022/05/17 05:20:20;;;;;;;2.80;2.33;;;11.60;99.90;;;;;;4162992;28;20112;-42
2022/05/17 05:22:22;;;;;;;2.35;2.17;;;11.50;99.90;;;;;;4162841;28;20103;-42
2022/05/17 05:24:24;;;;;;;2.65;2.08;;;11.60;99.90;;;;;;4163237;28;20124;-42
2022/05/17 05:26:27;;;;;;;2.83;1.65;;;11.80;99.90;;;;;;4162699;28;20046;-42
2022/05/17 05:28:29;;;;;;;2.08;1.88;;;11.80;99.90;;;;;;4163254;28;20045;-42
2022/05/17 05:30:31;;;;;;;3.65;2.25;;;11.70;99.90;;;;;;4162550;28;20048;-43
2022/05/17 05:32:33;;;;;;;2.47;2.20;;;11.70;99.90;;;;;;4162769;28;20057;-43
2022/05/17 05:34:37;;;;;;;3.08;2.70;;;11.80;99.90;;;;;;4162739;28;20061;-44
2022/05/17 05:36:39;;;;;;;2.75;2.38;;;11.70;99.90;;;;;;4162754;28;20096;-44
2022/05/17 05:38:42;;;;;;;2.97;2.08;;;11.90;99.90;;;;;;4162755;28;20041;-42
2022/05/17 05:40:44;;;;;;;;;;;12.10;99.90;;;;;;4163066;28;20509;-43
2022/05/17 05:42:50;;;;;;;4.40;2.17;;;12.20;99.90;;;;;;4162790;28;20339;-42
2022/05/17 05:44:53;;;;;;;3.15;2.13;;;12.20;99.90;;;;;;4160637;28;20095;-42
2022/05/17 05:46:55;;;;;;;1.85;1.85;;;12.20;99.90;;;;;;4162742;28;20041;-42
2022/05/17 05:48:58;;;;;;;2.30;2.20;;;12.20;99.90;;;;;;4162595;28;20046;-42
2022/05/17 05:51:00;;;;;;;4.15;2.22;;;12.20;99.90;;;;;;4162643;28;20091;-43
2022/05/17 05:53:06;;;;;;;5.78;2.00;;;12.30;99.90;;;;;;4162608;28;20045;-42
2022/05/17 05:55:19;;;;;;;2.25;2.03;;;12.40;99.90;;;;;;4162704;28;20459;-43
2022/05/17 05:57:22;;;;;;;2.50;1.85;;;12.50;99.90;;;;;;4162208;28;20055;-43
2022/05/17 05:59:28;;;;;;;2.53;2.42;;;12.60;99.90;;;;;;4162529;28;20115;-44
2022/05/17 06:01:30;;;;;;;3.20;2.35;;;12.90;99.90;;;;;;4162369;28;20045;-44
2022/05/17 06:03:33;;;;;;;;;;;13.20;99.90;;;;;;4162902;28;20049;-43
2022/05/17 06:05:36;;;;;;;2.78;2.10;;;13.50;99.90;;;;;;4161785;28;19924;-42
2022/05/17 06:07:39;;;;;;;2.35;1.73;;;13.60;99.90;;;;;;4162216;28;20038;-43
2022/05/17 06:09:41;;;;;;;2.58;2.40;;;13.50;99.90;;;;;;4162179;28;20480;-44
2022/05/17 06:11:43;;;;;;;2.33;2.13;;;13.50;99.90;;;;;;4161948;28;20045;-44
2022/05/17 06:13:46;;;;;;;3.65;1.50;;;13.80;99.90;;;;;;4162085;28;20129;-42
2022/05/17 06:15:50;;;;;;;;;;;13.80;99.90;;;;;;4162550;28;20334;-45
2022/05/17 06:17:53;;;;;;;3.03;2.13;;;13.80;99.90;;;;;;4161718;28;19927;-43
2022/05/17 06:19:56;;;;;;;3.47;3.28;;;13.80;99.90;;;;;;4161802;28;20553;-42
2022/05/17 06:21:58;;;;;;;5.28;2.42;;;13.90;99.90;;;;;;4161756;28;20488;-42
2022/05/17 06:24:00;;;;;;;6.95;2.42;;;14.10;99.90;;;;;;4162079;28;20111;-42
2022/05/17 06:26:03;;;;;;;3.53;1.92;;;14.20;99.90;;;;;;4161781;28;20034;-42
2022/05/17 06:28:05;;;;;;;4.78;1.95;;;14.50;99.90;;;;;;4161519;28;20041;-43
2022/05/17 06:30:08;;;;;;;1.75;1.40;;;14.80;99.90;;;;;;4161790;28;20049;-43
2022/05/17 06:32:12;;;;;;;2.90;1.83;;;15.00;99.90;;;;;;4161854;28;20037;-42
2022/05/17 06:34:14;;;;;;;5.80;1.75;;;15.20;99.90;;;;;;4161703;28;20390;-44
2022/05/17 06:36:17;;;;;;;1.55;1.45;;;15.40;99.90;;;;;;4161959;28;20053;-42
2022/05/17 06:38:39;;;;;;;1.58;1.40;;;15.60;99.90;;;;;;4161801;28;20051;-43
2022/05/17 06:40:42;;;;;;;1.10;1.10;;;15.70;99.90;;;;;;4161606;28;20059;-43
2022/05/17 06:42:45;;;;;;;1.13;1.10;;;15.70;99.90;;;;;;4161818;28;20041;-43
2022/05/17 06:44:47;;;;;;;4.55;1.40;;;15.90;99.90;;;;;;4161116;28;20049;-42
2022/05/17 06:46:49;;;;;;;;;;;16.10;99.90;;;;;;4161908;28;20041;-42
2022/05/17 06:48:51;;;;;;;1.65;1.55;;;16.00;99.90;;;;;;4161716;28;20474;-42
2022/05/17 06:51:00;;;;;;;1.55;1.20;;;16.00;99.90;;;;;;4161187;28;20681;-43
2022/05/17 06:53:07;;;;;;;3.25;1.73;;;16.40;99.90;;;;;;4161537;28;20440;-43
2022/05/17 06:55:09;;;;;;;1.10;1.10;;;16.70;99.90;;;;;;4161489;28;20421;-42
2022/05/17 06:57:14;;;;;;;2.00;1.20;;;17.00;99.90;;;;;;4160932;28;20037;-43
2022/05/17 06:59:18;;;;;;;1.25;1.25;;;17.20;99.90;;;;;;4161494;28;20152;-44
2022/05/17 07:01:20;;;;;;;1.42;1.15;;;17.30;99.90;;;;;;4161040;28;20416;-43
2022/05/17 07:03:23;;;;;;;2.65;1.45;;;17.30;99.90;;;;;;4161192;28;20049;-44
2022/05/17 07:05:27;;;;;;;2.33;1.48;;;17.30;99.90;;;;;;4161227;28;20056;-43
2022/05/17 07:07:29;;;;;;;1.70;1.20;;;17.60;99.90;;;;;;4161107;28;20060;-43
2022/05/17 07:09:32;;;;;;;1.73;1.10;;;17.80;99.90;;;;;;4161104;28;20512;-44
2022/05/17 07:13:55;;;;;;;2.97;1.48;;;18.00;99.90;;;;;;4161126;28;20097;-44
2022/05/17 07:15:59;;;;;;;2.58;1.00;;;18.20;99.90;;;;;;4160800;28;20099;-42
2022/05/17 07:18:02;;;;;;;1.40;1.00;;;18.40;99.90;;;;;;4160744;28;20045;-43
2022/05/17 07:20:05;;;;;;;3.03;1.38;;;18.60;99.90;;;;;;4161682;28;20052;-43
2022/05/17 07:22:08;;;;;;;1.00;1.00;;;18.90;99.90;;;;;;4160968;28;20493;-44
2022/05/17 07:24:10;;;;;;;2.30;1.38;;;18.90;99.90;;;;;;4160303;28;20050;-44
2022/05/17 07:26:14;;;;;;;1.10;1.00;;;19.00;99.90;;;;;;4160949;28;20141;-44
2022/05/17 07:28:18;;;;;;;1.63;1.00;;;19.20;99.90;;;;;;4160945;28;20044;-43
2022/05/17 07:30:21;;;;;;;5.50;1.10;;;19.60;99.90;;;;;;4161127;28;20397;-44
2022/05/17 07:32:23;;;;;;;3.10;1.60;;;19.60;99.90;;;;;;4160900;28;20145;-42
2022/05/17 07:34:27;;;;;;;2.15;0.90;;;19.70;99.90;;;;;;4161196;28;20041;-42
2022/05/17 07:36:29;;;;;;;0.90;0.80;;;20.00;99.90;;;;;;4160617;28;20615;-43
2022/05/17 07:38:32;;;;;;;1.10;1.00;;;19.70;99.90;;;;;;4156524;28;20050;-43
2022/05/17 07:40:34;;;;;;;1.52;0.80;;;19.70;99.90;;;;;;4144251;28;20053;-43
2022/05/17 07:42:36;;;;;;;1.38;1.27;;;19.90;99.90;;;;;;4144368;28;20506;-43
2022/05/17 07:44:38;;;;;;;2.05;1.10;;;20.20;99.90;;;;;;4159078;28;20046;-43
2022/05/17 07:46:41;;;;;;;3.08;0.85;;;20.00;99.90;;;;;;4160434;28;20034;-43
2022/05/17 07:48:43;;;;;;;;;;;19.70;99.90;;;;;;4161028;28;20128;-43
2022/05/17 07:50:46;;;;;;;3.38;0.90;;;19.90;99.90;;;;;;4160729;28;19921;-43
2022/05/17 07:52:48;;;;;;;1.10;0.82;;;20.30;99.90;;;;;;4159094;28;20053;-43
2022/05/17 07:54:51;;;;;;;3.60;1.27;;;20.50;99.90;;;;;;4160709;28;20044;-43
2022/05/17 07:56:53;;;;;;;13.95;2.70;;;20.40;99.90;;;;;;4159733;28;20045;-43
2022/05/17 07:58:55;;;;;;;2.95;1.05;;;20.60;99.90;;;;;;4160489;28;20052;-43
2022/05/17 08:00:57;;;;;;;2.53;0.70;;;20.70;99.90;;;;;;4160910;28;20432;-43
2022/05/17 08:03:00;;;;;;;3.40;1.10;;;20.90;99.90;;;;;;4160506;28;20067;-45
2022/05/17 08:05:03;;;;;;;1.65;0.70;;;21.10;99.90;;;;;;4160535;28;20076;-43
2022/05/17 08:07:05;;;;;;;0.77;0.70;;;20.90;99.90;;;;;;4160302;28;20045;-43
2022/05/17 08:09:07;;;;;;;;;;;21.00;99.90;;;;;;4159735;28;20433;-44
2022/05/17 08:11:09;;;;;;;0.93;0.93;;;21.30;99.90;;;;;;4160386;28;19931;-43
2022/05/17 08:13:14;;;;;;;3.65;0.80;;;21.30;99.90;;;;;;4159229;28;20410;-43
2022/05/17 08:15:18;;;;;;;0.70;0.70;;;21.50;99.90;;;;;;4160283;28;20095;-43
2022/05/17 08:17:21;;;;;;;2.75;0.80;;;21.60;99.90;;;;;;4160120;28;20556;-44
2022/05/17 08:19:23;;;;;;;2.42;0.77;;;21.80;99.90;;;;;;4160698;28;20051;-43
2022/05/17 08:21:26;;;;;;;;;;;22.10;99.90;;;;;;4160876;28;20049;-43
2022/05/17 08:23:28;;;;;;;1.30;0.82;;;22.20;99.90;;;;;;4160761;28;19921;-43
2022/05/17 08:27:51;;;;;;;4.03;0.80;;;22.10;99.90;;;;;;4160158;28;19975;-44
2022/05/17 08:29:53;;;;;;;1.70;0.80;;;22.30;99.90;;;;;;4160188;28;20132;-44
2022/05/17 08:34:16;;;;;;;1.33;0.80;;;22.70;99.90;;;;;;4160424;28;20041;-43
2022/05/17 08:36:19;;;;;;;1.77;0.80;;;22.30;99.90;;;;;;4160045;28;20056;-43
2022/05/17 08:38:44;;;;;;;1.55;0.70;;;22.70;99.90;;;;;;4160037;28;20042;-43
2022/05/17 08:41:10;;;;;;;0.80;0.80;;;22.40;99.90;;;;;;4159520;28;20046;-44
2022/05/17 08:43:29;;;;;;;1.65;0.70;;;22.50;99.90;;;;;;4160594;28;20517;-43
2022/05/17 08:45:40;;;;;;;1.63;0.90;;;22.50;99.70;;;;;;4160095;28;20550;-43
2022/05/17 08:47:53;;;;;;;2.35;1.15;;;22.50;99.90;;;;;;4152931;28;20418;-43
2022/05/17 08:50:11;;;;;;;1.58;0.70;;;22.40;99.90;;;;;;4150995;28;20064;-43
2022/05/17 08:52:19;;;;;;;0.90;0.77;;;22.60;99.90;;;;;;4143659;28;20068;-43
2022/05/17 08:54:36;;;;;;;1.85;0.60;;;22.80;99.90;;;;;;4151882;28;20544;-44
2022/05/17 08:56:51;;;;;;;0.93;0.80;;;23.20;99.90;;;;;;4160204;28;20051;-43
2022/05/17 08:58:56;;;;;;;1.27;0.90;;;23.20;99.90;;;;;;4158914;28;20065;-43
2022/05/17 09:01:14;;;;;;;2.97;0.80;;;23.10;98.40;;;;;;4159931;28;20348;-43
2022/05/17 09:03:35;;;;;;;5.50;0.80;;;23.00;98.50;;;;;;4160243;28;20038;-42
2022/05/17 09:05:51;;;;;;;0.88;0.60;;;23.10;98.50;;;;;;4160101;28;20033;-43
2022/05/17 09:08:11;;;;;;;0.60;0.60;;;23.50;97.90;;;;;;4157432;28;20071;-43
2022/05/17 09:10:36;;;;;;;0.80;0.60;;;23.60;98.00;;;;;;4161642;28;20045;-44
2022/05/17 09:13:08;;;;;;;0.68;0.60;;;23.60;97.80;;;;;;4162688;28;20759;-43
2022/05/17 09:15:14;;;;;;;2.63;0.90;;;23.60;98.50;;;;;;4157737;28;20513;-43
2022/05/17 09:17:21;;;;;;;1.38;0.60;;;23.90;99.20;;;;;;4161365;28;20069;-52
2022/05/17 09:19:24;;;;;;;1.48;0.60;;;23.90;99.40;;;;;;4162863;28;20098;-43
2022/05/17 09:21:28;;;;;;;0.80;0.70;;;23.80;98.40;;;;;;4163024;28;20397;-43
2022/05/17 09:23:31;;;;;;;4.18;1.00;;;24.00;97.90;;;;;;4162837;28;20116;-43
2022/05/17 09:26:11;;;;;;;1.23;0.80;;;23.60;97.90;;;;;;4163103;28;20042;-44
2022/05/17 09:28:42;;;;;;;3.17;0.80;;;23.80;99.80;;;;;;4162755;28;20508;-43
2022/05/17 09:30:45;;;;;;;0.90;0.80;;;24.10;99.70;;;;;;4158381;28;20055;-44
2022/05/17 09:32:48;;;;;;;3.65;0.70;;;24.10;99.20;;;;;;4161480;28;20045;-43
2022/05/17 09:35:15;;;;;;;3.50;0.98;;;24.30;99.70;;;;;;4163171;28;20041;-44
2022/05/17 09:37:20;;;;;;;2.45;0.70;;;23.90;98.90;;;;;;4141854;28;20061;-44
2022/05/17 09:39:26;;;;;;;2.38;0.75;;;24.20;99.90;;;;;;4156737;28;20806;-43
2022/05/17 09:41:36;;;;;;;0.60;0.60;;;24.40;99.20;;;;;;4162686;28;20049;-43
2022/05/17 09:44:10;;;;;;;1.17;0.70;;;24.70;99.70;;;;;;4162453;28;20517;-43
2022/05/17 09:46:17;;;;;;;3.13;0.82;;;24.90;98.40;;;;;;4162804;28;20045;-43
2022/05/17 09:48:33;;;;;;;2.55;0.70;;;24.80;99.00;;;;;;4162397;28;20404;-44
2022/05/17 09:53:17;;;;;;;2.15;1.00;;;24.40;98.30;;;;;;4146352;28;20387;-43
2022/05/17 09:55:24;;;;;;;0.95;0.60;;;24.30;97.90;;;;;;4156831;28;20409;-43
2022/05/17 09:57:30;;;;;;;3.25;0.70;;;24.30;98.70;;;;;;4162420;28;20051;-44
2022/05/17 09:59:32;;;;;;;3.45;0.85;;;24.60;98.20;;;;;;4160860;28;20620;-44
2022/05/17 10:01:38;;;;;;;5.18;0.70;;;24.60;98.10;;;;;;4151333;28;20045;-43
2022/05/17 10:03:56;;;;;;;3.35;1.02;;;24.90;97.90;;;;;;4158450;28;20454;-43
2022/05/17 10:06:37;;;;;;;1.80;0.60;;;25.00;97.40;;;;;;4162418;28;20559;-44
2022/05/17 10:08:58;;;;;;;2.30;1.00;;;24.60;96.60;;;;;;4127209;28;20506;-44
2022/05/17 10:11:13;;;;;;;3.58;0.60;;;24.60;96.90;;;;;;4127364;28;20109;-43
2022/05/17 10:13:25;;;;;;;1.90;0.70;;;24.50;96.90;;;;;;4127191;28;20123;-44
2022/05/17 10:15:29;;;;;;;2.10;0.70;;;24.60;97.30;;;;;;4127283;28;20046;-43
2022/05/17 10:17:49;;;;;;;3.22;1.05;;;25.00;96.60;;;;;;4122304;28;20046;-44
2022/05/17 10:20:02;;;;;;;1.75;1.13;;;25.10;97.50;;;;;;4126291;28;20053;-43
2022/05/17 10:22:36;;;;;;;2.70;0.70;;;25.40;97.30;;;;;;4127157;28;20844;-43
2022/05/17 10:25:08;;;;;;;3.92;0.70;;;25.40;96.30;;;;;;4111575;28;20550;-44
2022/05/17 10:27:13;;;;;;;3.85;0.80;;;25.00;96.40;;;;;;4118419;28;20454;-43
2022/05/17 10:29:40;;;;;;;1.92;0.60;;;25.00;97.40;;;;;;4127164;28;20073;-43
2022/05/17 10:32:01;;;;;;;4.88;0.60;;;25.20;97.00;;;;;;4127204;28;20054;-43
2022/05/17 10:34:26;;;;;;;1.73;0.70;;;25.20;97.60;;;;;;4110941;28;20039;-43
2022/05/17 10:36:38;;;;;;;3.45;0.80;;;25.20;96.00;;;;;;4118982;28;20524;-43
2022/05/17 10:38:58;;;;;;;1.65;0.93;;;25.10;95.70;;;;;;4126641;28;20514;-46
2022/05/17 10:41:05;;;;;;;1.90;0.60;;;25.20;98.10;;;;;;4124885;28;20108;-44
2022/05/17 10:43:07;;;;;;;1.08;0.60;;;25.40;96.40;;;;;;4124749;28;20047;-44
2022/05/17 10:45:19;;;;;;;0.90;0.70;;;25.50;96.90;;;;;;4143530;28;20053;-43
2022/05/17 10:47:40;;;;;;;;;;;25.90;97.20;;;;;;4162010;28;20043;-44
2022/05/17 10:50:24;;;;;;;3.30;0.70;;;25.50;95.30;;;;;;4161330;28;19925;-44
2022/05/17 10:52:49;;;;;;;1.60;0.70;;;25.50;96.50;;;;;;4153614;28;20406;-44
2022/05/17 10:55:08;;;;;;;0.80;0.60;;;25.40;95.80;;;;;;4161430;28;20119;-45
2022/05/17 10:57:29;;;;;;;1.95;0.60;;;25.70;95.90;;;;;;4159557;28;20501;-43
2022/05/17 10:59:40;;;;;;;2.70;0.55;;;25.50;95.10;;;;;;4159768;28;20044;-44
2022/05/17 11:02:12;;;;;;;0.95;0.68;;;25.40;95.40;;;;;;4161031;28;20068;-43
2022/05/17 11:04:17;;;;;;;0.60;0.60;;;25.80;96.20;;;;;;4157374;28;20044;-43
2022/05/17 11:06:56;;;;;;;2.08;1.10;;;26.10;95.00;;;;;;4160516;28;20464;-43
2022/05/17 11:09:26;;;;;;;1.88;0.80;;;25.70;94.90;;;;;;4157168;28;20025;-43
2022/05/17 11:11:34;;;;;;;2.80;0.75;;;26.00;96.90;;;;;;4156137;28;20394;-44
2022/05/17 11:13:53;;;;;;;2.42;0.60;;;25.80;95.10;;;;;;4152803;28;20096;-43
2022/05/17 11:16:18;;;;;;;1.20;0.70;;;25.70;96.00;;;;;;4145130;28;20042;-43